sensor_id;sensor_type;location;lat;lon;timestamp;pressure;altitude;pressure_sealevel;temperature;humidity
58473;BME280;44775;51.564;5.460;2023-05-24T00:00:27;102180.06;;;6.78;100.00
58473;BME280;44775;51.564;5.460;2023-05-24T00:02:52;102179.09;;;6.79;100.00
58473;BME280;44775;51.564;5.460;2023-05-24T00:05:18;102173.09;;;6.89;100.00
58473;BME280;44775;51.564;5.460;2023-05-24T00:07:43;102176.78;;;6.99;100.00
58473;BME280;44775;51.564;5.460;2023-05-24T00:10:09;102174.97;;;6.99;100.00
58473;BME280;44775;51.564;5.460;2023-05-24T00:12:35;102171.97;;;7.04;100.00
58473;BME280;44775;51.564;5.460;2023-05-24T00:15:00;102169.25;;;6.93;100.00
58473;BME280;44775;51.564;5.460;2023-05-24T00:17:25;102161.50;;;6.90;100.00
58473;BME280;44775;51.564;5.460;2023-05-24T00:19:51;102155.75;;;7.20;100.00
58473;BME280;44775;51.564;5.460;2023-05-24T00:22:17;102161.06;;;6.96;100.00
58473;BME280;44775;51.564;5.460;2023-05-24T00:24:45;102159.81;;;6.89;100.00
58473;BME280;44775;51.564;5.460;2023-05-24T00:27:10;102149.94;;;6.78;100.00
58473;BME280;44775;51.564;5.460;2023-05-24T00:29:36;102147.69;;;6.60;100.00
58473;BME280;44775;51.564;5.460;2023-05-24T00:32:01;102148.25;;;6.53;100.00
58473;BME280;44775;51.564;5.460;2023-05-24T00:34:26;102150.69;;;6.43;100.00
58473;BME280;44775;51.564;5.460;2023-05-24T00:36:51;102152.50;;;6.43;100.00
58473;BME280;44775;51.564;5.460;2023-05-24T00:39:17;102154.97;;;6.33;100.00
58473;BME280;44775;51.564;5.460;2023-05-24T00:41:42;102150.31;;;6.24;100.00
58473;BME280;44775;51.564;5.460;2023-05-24T00:44:07;102154.34;;;6.17;100.00
58473;BME280;44775;51.564;5.460;2023-05-24T00:46:35;102149.28;;;6.01;100.00
58473;BME280;44775;51.564;5.460;2023-05-24T00:49:01;102142.88;;;5.90;100.00
58473;BME280;44775;51.564;5.460;2023-05-24T00:51:26;102135.03;;;5.76;100.00
58473;BME280;44775;51.564;5.460;2023-05-24T00:53:53;102144.69;;;5.77;100.00
58473;BME280;44775;51.564;5.460;2023-05-24T00:56:19;102145.41;;;5.66;100.00
58473;BME280;44775;51.564;5.460;2023-05-24T00:58:44;102143.94;;;5.62;100.00
58473;BME280;44775;51.564;5.460;2023-05-24T01:01:10;102143.41;;;5.57;100.00
58473;BME280;44775;51.564;5.460;2023-05-24T01:03:36;102139.66;;;5.60;100.00
58473;BME280;44775;51.564;5.460;2023-05-24T01:06:03;102141.41;;;5.61;100.00
58473;BME280;44775;51.564;5.460;2023-05-24T01:11:03;102139.03;;;5.43;100.00
58473;BME280;44775;51.564;5.460;2023-05-24T01:13:35;102137.19;;;5.31;100.00
58473;BME280;44775;51.564;5.460;2023-05-24T01:16:09;102125.19;;;5.26;100.00
58473;BME280;44775;51.564;5.460;2023-05-24T01:18:44;102126.28;;;5.23;100.00
58473;BME280;44775;51.564;5.460;2023-05-24T01:21:24;102129.78;;;5.24;100.00
58473;BME280;44775;51.564;5.460;2023-05-24T01:24:29;102124.97;;;5.16;100.00
58473;BME280;44775;51.564;5.460;2023-05-24T01:29:25;102115.88;;;5.20;100.00
58473;BME280;44775;51.564;5.460;2023-05-24T01:31:51;102130.47;;;5.13;100.00
58473;BME280;44775;51.564;5.460;2023-05-24T01:34:17;102129.81;;;5.09;100.00
58473;BME280;44775;51.564;5.460;2023-05-24T01:36:42;102114.19;;;4.92;100.00
58473;BME280;44775;51.564;5.460;2023-05-24T01:39:08;102130.72;;;4.95;100.00
58473;BME280;44775;51.564;5.460;2023-05-24T01:41:39;102133.56;;;4.92;100.00
58473;BME280;44775;51.564;5.460;2023-05-24T01:47:00;102120.84;;;4.85;100.00
58473;BME280;44775;51.564;5.460;2023-05-24T01:49:30;102106.00;;;4.82;100.00
58473;BME280;44775;51.564;5.460;2023-05-24T01:52:11;102109.72;;;4.80;100.00
58473;BME280;44775;51.564;5.460;2023-05-24T01:54:44;102105.53;;;4.76;100.00
58473;BME280;44775;51.564;5.460;2023-05-24T01:57:10;102100.09;;;4.64;100.00
58473;BME280;44775;51.564;5.460;2023-05-24T01:59:37;102114.19;;;4.65;100.00
58473;BME280;44775;51.564;5.460;2023-05-24T02:02:04;102115.34;;;4.61;100.00
58473;BME280;44775;51.564;5.460;2023-05-24T02:04:30;102116.94;;;4.63;100.00
58473;BME280;44775;51.564;5.460;2023-05-24T02:06:55;102123.69;;;4.55;100.00
58473;BME280;44775;51.564;5.460;2023-05-24T02:09:20;102125.28;;;4.57;100.00
58473;BME280;44775;51.564;5.460;2023-05-24T02:11:45;102120.50;;;4.49;100.00
58473;BME280;44775;51.564;5.460;2023-05-24T02:14:11;102120.94;;;4.56;100.00
58473;BME280;44775;51.564;5.460;2023-05-24T02:16:37;102123.28;;;4.61;100.00
58473;BME280;44775;51.564;5.460;2023-05-24T02:19:07;102120.09;;;4.56;100.00
58473;BME280;44775;51.564;5.460;2023-05-24T02:21:33;102113.00;;;4.42;100.00
58473;BME280;44775;51.564;5.460;2023-05-24T02:23:58;102126.81;;;4.47;100.00
58473;BME280;44775;51.564;5.460;2023-05-24T02:26:23;102122.09;;;4.38;100.00
58473;BME280;44775;51.564;5.460;2023-05-24T02:28:48;102116.53;;;4.28;100.00
58473;BME280;44775;51.564;5.460;2023-05-24T02:31:14;102131.38;;;4.31;100.00
58473;BME280;44775;51.564;5.460;2023-05-24T02:33:39;102134.13;;;4.29;100.00
58473;BME280;44775;51.564;5.460;2023-05-24T02:36:04;102125.44;;;4.27;100.00
58473;BME280;44775;51.564;5.460;2023-05-24T02:38:30;102126.19;;;4.29;100.00
58473;BME280;44775;51.564;5.460;2023-05-24T02:40:56;102132.41;;;4.28;100.00
58473;BME280;44775;51.564;5.460;2023-05-24T02:43:21;102120.13;;;4.27;100.00
58473;BME280;44775;51.564;5.460;2023-05-24T02:45:46;102121.47;;;4.20;100.00
58473;BME280;44775;51.564;5.460;2023-05-24T02:48:11;102122.03;;;4.25;100.00
58473;BME280;44775;51.564;5.460;2023-05-24T02:50:37;102136.00;;;4.27;100.00
58473;BME280;44775;51.564;5.460;2023-05-24T02:53:02;102134.97;;;4.30;100.00
58473;BME280;44775;51.564;5.460;2023-05-24T02:55:27;102132.34;;;4.30;100.00
58473;BME280;44775;51.564;5.460;2023-05-24T02:57:53;102123.75;;;4.26;100.00
58473;BME280;44775;51.564;5.460;2023-05-24T03:00:19;102126.38;;;4.26;100.00
58473;BME280;44775;51.564;5.460;2023-05-24T03:02:45;102128.38;;;4.22;100.00
58473;BME280;44775;51.564;5.460;2023-05-24T03:05:12;102131.41;;;4.16;100.00
58473;BME280;44775;51.564;5.460;2023-05-24T03:07:37;102123.84;;;4.10;100.00
58473;BME280;44775;51.564;5.460;2023-05-24T03:10:02;102121.50;;;4.06;100.00
58473;BME280;44775;51.564;5.460;2023-05-24T03:12:28;102129.03;;;3.97;100.00
58473;BME280;44775;51.564;5.460;2023-05-24T03:14:53;102120.63;;;3.91;100.00
58473;BME280;44775;51.564;5.460;2023-05-24T03:17:18;102124.59;;;3.98;100.00
58473;BME280;44775;51.564;5.460;2023-05-24T03:19:44;102126.31;;;3.99;100.00
58473;BME280;44775;51.564;5.460;2023-05-24T03:22:09;102112.91;;;4.02;100.00
58473;BME280;44775;51.564;5.460;2023-05-24T03:24:34;102117.22;;;4.03;100.00
58473;BME280;44775;51.564;5.460;2023-05-24T03:27:02;102120.72;;;4.03;100.00
58473;BME280;44775;51.564;5.460;2023-05-24T03:29:28;102114.78;;;4.00;100.00
58473;BME280;44775;51.564;5.460;2023-05-24T03:31:53;102106.84;;;4.00;100.00
58473;BME280;44775;51.564;5.460;2023-05-24T03:34:18;102109.19;;;4.05;100.00
58473;BME280;44775;51.564;5.460;2023-05-24T03:36:44;102119.09;;;4.01;100.00
58473;BME280;44775;51.564;5.460;2023-05-24T03:39:09;102118.66;;;4.09;100.00
58473;BME280;44775;51.564;5.460;2023-05-24T03:41:35;102115.44;;;4.03;100.00
58473;BME280;44775;51.564;5.460;2023-05-24T03:44:00;102122.88;;;4.11;100.00
58473;BME280;44775;51.564;5.460;2023-05-24T03:46:25;102118.19;;;4.02;100.00
58473;BME280;44775;51.564;5.460;2023-05-24T03:48:51;102113.53;;;3.91;100.00
58473;BME280;44775;51.564;5.460;2023-05-24T03:51:16;102109.78;;;3.95;100.00
58473;BME280;44775;51.564;5.460;2023-05-24T03:53:41;102115.69;;;3.85;100.00
58473;BME280;44775;51.564;5.460;2023-05-24T03:56:07;102104.38;;;3.83;100.00
58473;BME280;44775;51.564;5.460;2023-05-24T03:58:32;102106.63;;;3.74;100.00
58473;BME280;44775;51.564;5.460;2023-05-24T04:00:57;102116.84;;;3.81;100.00
58473;BME280;44775;51.564;5.460;2023-05-24T04:03:23;102109.88;;;3.79;100.00
58473;BME280;44775;51.564;5.460;2023-05-24T04:05:50;102111.38;;;3.84;100.00
58473;BME280;44775;51.564;5.460;2023-05-24T04:08:15;102109.56;;;3.84;100.00
58473;BME280;44775;51.564;5.460;2023-05-24T04:10:41;102104.88;;;3.89;100.00
58473;BME280;44775;51.564;5.460;2023-05-24T04:13:07;102116.75;;;3.96;100.00
58473;BME280;44775;51.564;5.460;2023-05-24T04:15:32;102119.41;;;3.96;100.00
58473;BME280;44775;51.564;5.460;2023-05-24T04:17:58;102126.56;;;3.94;100.00
58473;BME280;44775;51.564;5.460;2023-05-24T04:20:24;102125.66;;;3.95;100.00
58473;BME280;44775;51.564;5.460;2023-05-24T04:22:51;102118.06;;;4.03;100.00
58473;BME280;44775;51.564;5.460;2023-05-24T04:25:17;102124.22;;;4.04;100.00
58473;BME280;44775;51.564;5.460;2023-05-24T04:27:42;102121.50;;;4.06;100.00
58473;BME280;44775;51.564;5.460;2023-05-24T04:30:09;102122.53;;;4.03;100.00
58473;BME280;44775;51.564;5.460;2023-05-24T04:32:34;102122.22;;;4.08;100.00
58473;BME280;44775;51.564;5.460;2023-05-24T04:35:01;102123.00;;;4.10;100.00
58473;BME280;44775;51.564;5.460;2023-05-24T04:37:27;102126.41;;;4.12;100.00
58473;BME280;44775;51.564;5.460;2023-05-24T04:39:53;102124.50;;;4.14;100.00
58473;BME280;44775;51.564;5.460;2023-05-24T04:42:18;102119.97;;;4.16;100.00
58473;BME280;44775;51.564;5.460;2023-05-24T04:44:44;102119.00;;;4.17;100.00
58473;BME280;44775;51.564;5.460;2023-05-24T04:47:09;102124.59;;;4.26;100.00
58473;BME280;44775;51.564;5.460;2023-05-24T04:49:36;102131.06;;;4.35;100.00
58473;BME280;44775;51.564;5.460;2023-05-24T04:52:03;102127.97;;;4.43;100.00
58473;BME280;44775;51.564;5.460;2023-05-24T04:54:29;102124.06;;;4.48;100.00
58473;BME280;44775;51.564;5.460;2023-05-24T04:56:54;102121.97;;;4.54;100.00
58473;BME280;44775;51.564;5.460;2023-05-24T04:59:19;102126.50;;;4.52;100.00
58473;BME280;44775;51.564;5.460;2023-05-24T05:01:45;102130.47;;;4.59;100.00
58473;BME280;44775;51.564;5.460;2023-05-24T05:04:11;102130.00;;;4.66;100.00
58473;BME280;44775;51.564;5.460;2023-05-24T05:06:36;102126.34;;;4.82;100.00
58473;BME280;44775;51.564;5.460;2023-05-24T05:09:07;102129.81;;;4.96;100.00
58473;BME280;44775;51.564;5.460;2023-05-24T05:11:37;102132.78;;;5.05;100.00
58473;BME280;44775;51.564;5.460;2023-05-24T05:14:03;102133.88;;;5.15;100.00
58473;BME280;44775;51.564;5.460;2023-05-24T05:16:29;102125.75;;;5.31;100.00
58473;BME280;44775;51.564;5.460;2023-05-24T05:18:54;102138.91;;;5.45;100.00
58473;BME280;44775;51.564;5.460;2023-05-24T05:21:19;102146.50;;;5.64;100.00
58473;BME280;44775;51.564;5.460;2023-05-24T05:23:45;102144.41;;;5.95;100.00
58473;BME280;44775;51.564;5.460;2023-05-24T05:26:10;102142.13;;;6.27;100.00
58473;BME280;44775;51.564;5.460;2023-05-24T05:28:36;102142.31;;;6.73;100.00
58473;BME280;44775;51.564;5.460;2023-05-24T05:31:01;102141.88;;;6.79;100.00
58473;BME280;44775;51.564;5.460;2023-05-24T05:33:27;102144.41;;;7.05;100.00
58473;BME280;44775;51.564;5.460;2023-05-24T05:35:52;102140.19;;;7.38;100.00
58473;BME280;44775;51.564;5.460;2023-05-24T05:38:17;102148.25;;;7.60;100.00
58473;BME280;44775;51.564;5.460;2023-05-24T05:40:42;102137.66;;;7.94;100.00
58473;BME280;44775;51.564;5.460;2023-05-24T05:43:08;102138.13;;;8.33;100.00
58473;BME280;44775;51.564;5.460;2023-05-24T05:45:33;102137.56;;;8.84;100.00
58473;BME280;44775;51.564;5.460;2023-05-24T05:47:59;102142.78;;;9.17;100.00
58473;BME280;44775;51.564;5.460;2023-05-24T05:50:24;102147.44;;;9.36;100.00
58473;BME280;44775;51.564;5.460;2023-05-24T05:52:49;102135.06;;;9.77;100.00
58473;BME280;44775;51.564;5.460;2023-05-24T05:55:15;102150.72;;;10.12;100.00
58473;BME280;44775;51.564;5.460;2023-05-24T05:57:40;102147.19;;;10.33;100.00
58473;BME280;44775;51.564;5.460;2023-05-24T06:00:06;102152.78;;;10.70;100.00
58473;BME280;44775;51.564;5.460;2023-05-24T06:02:31;102161.13;;;11.06;100.00
58473;BME280;44775;51.564;5.460;2023-05-24T06:04:57;102158.88;;;11.40;100.00
58473;BME280;44775;51.564;5.460;2023-05-24T06:07:22;102169.00;;;11.66;100.00
58473;BME280;44775;51.564;5.460;2023-05-24T06:09:48;102167.59;;;11.71;100.00
58473;BME280;44775;51.564;5.460;2023-05-24T06:12:13;102171.47;;;12.06;94.95
58473;BME280;44775;51.564;5.460;2023-05-24T06:14:38;102176.88;;;12.34;90.89
58473;BME280;44775;51.564;5.460;2023-05-24T06:17:05;102180.47;;;12.52;88.54
58473;BME280;44775;51.564;5.460;2023-05-24T06:19:30;102171.53;;;12.51;94.15
58473;BME280;44775;51.564;5.460;2023-05-24T06:21:56;102184.03;;;12.70;93.70
58473;BME280;44775;51.564;5.460;2023-05-24T06:24:22;102186.34;;;12.83;91.53
58473;BME280;44775;51.564;5.460;2023-05-24T06:26:50;102190.91;;;13.18;89.22
58473;BME280;44775;51.564;5.460;2023-05-24T06:29:15;102193.28;;;13.39;81.59
58473;BME280;44775;51.564;5.460;2023-05-24T06:31:41;102191.38;;;13.32;86.75
58473;BME280;44775;51.564;5.460;2023-05-24T06:34:07;102196.94;;;13.30;87.25
58473;BME280;44775;51.564;5.460;2023-05-24T06:36:32;102191.88;;;13.27;87.38
58473;BME280;44775;51.564;5.460;2023-05-24T06:39:00;102193.53;;;13.46;80.48
58473;BME280;44775;51.564;5.460;2023-05-24T06:41:25;102189.22;;;13.53;80.80
58473;BME280;44775;51.564;5.460;2023-05-24T06:43:51;102190.31;;;13.42;86.58
58473;BME280;44775;51.564;5.460;2023-05-24T06:46:16;102190.31;;;13.25;86.44
58473;BME280;44775;51.564;5.460;2023-05-24T06:48:41;102192.22;;;13.32;80.46
58473;BME280;44775;51.564;5.460;2023-05-24T06:51:07;102188.94;;;13.38;83.31
58473;BME280;44775;51.564;5.460;2023-05-24T06:53:32;102181.34;;;13.34;82.71
58473;BME280;44775;51.564;5.460;2023-05-24T06:55:57;102187.09;;;13.39;83.95
58473;BME280;44775;51.564;5.460;2023-05-24T06:58:22;102195.66;;;13.07;85.13
58473;BME280;44775;51.564;5.460;2023-05-24T07:00:48;102199.84;;;12.91;85.36
58473;BME280;44775;51.564;5.460;2023-05-24T07:03:14;102191.84;;;12.82;88.08
58473;BME280;44775;51.564;5.460;2023-05-24T07:05:39;102188.72;;;12.86;87.44
58473;BME280;44775;51.564;5.460;2023-05-24T07:08:05;102186.84;;;12.96;84.00
58473;BME280;44775;51.564;5.460;2023-05-24T07:10:31;102191.69;;;13.29;82.50
58473;BME280;44775;51.564;5.460;2023-05-24T07:12:56;102196.31;;;13.80;80.15
58473;BME280;44775;51.564;5.460;2023-05-24T07:15:21;102198.28;;;14.22;73.41
58473;BME280;44775;51.564;5.460;2023-05-24T07:17:47;102198.50;;;14.37;75.91
58473;BME280;44775;51.564;5.460;2023-05-24T07:20:12;102206.88;;;14.26;72.74
58473;BME280;44775;51.564;5.460;2023-05-24T07:22:38;102194.13;;;14.28;73.05
58473;BME280;44775;51.564;5.460;2023-05-24T07:25:04;102206.56;;;14.63;71.45
58473;BME280;44775;51.564;5.460;2023-05-24T07:27:29;102207.19;;;14.99;69.65
58473;BME280;44775;51.564;5.460;2023-05-24T07:29:55;102203.53;;;15.17;66.99
58473;BME280;44775;51.564;5.460;2023-05-24T07:32:21;102212.81;;;15.47;66.11
58473;BME280;44775;51.564;5.460;2023-05-24T07:34:46;102209.97;;;15.65;62.76
58473;BME280;44775;51.564;5.460;2023-05-24T07:37:12;102218.22;;;15.88;62.50
58473;BME280;44775;51.564;5.460;2023-05-24T07:39:37;102215.53;;;15.88;60.95
58473;BME280;44775;51.564;5.460;2023-05-24T07:42:03;102213.31;;;15.99;61.19
58473;BME280;44775;51.564;5.460;2023-05-24T07:44:28;102211.38;;;16.33;58.65
58473;BME280;44775;51.564;5.460;2023-05-24T07:46:54;102218.38;;;16.74;58.50
58473;BME280;44775;51.564;5.460;2023-05-24T07:49:19;102217.34;;;16.75;55.52
58473;BME280;44775;51.564;5.460;2023-05-24T07:51:45;102223.22;;;16.79;54.88
58473;BME280;44775;51.564;5.460;2023-05-24T07:54:10;102215.59;;;16.91;54.27
58473;BME280;44775;51.564;5.460;2023-05-24T07:56:35;102212.72;;;17.15;53.20
58473;BME280;44775;51.564;5.460;2023-05-24T07:59:01;102219.75;;;17.47;52.82
58473;BME280;44775;51.564;5.460;2023-05-24T08:01:31;102223.25;;;17.56;51.76
58473;BME280;44775;51.564;5.460;2023-05-24T08:03:56;102215.16;;;17.71;50.58
58473;BME280;44775;51.564;5.460;2023-05-24T08:06:22;102214.22;;;17.87;51.03
58473;BME280;44775;51.564;5.460;2023-05-24T08:08:48;102219.94;;;18.07;50.11
58473;BME280;44775;51.564;5.460;2023-05-24T08:11:13;102215.63;;;17.98;50.45
58473;BME280;44775;51.564;5.460;2023-05-24T08:13:38;102220.41;;;17.73;49.93
58473;BME280;44775;51.564;5.460;2023-05-24T08:16:04;102222.44;;;17.47;50.52
58473;BME280;44775;51.564;5.460;2023-05-24T08:18:29;102210.81;;;17.47;50.95
58473;BME280;44775;51.564;5.460;2023-05-24T08:20:55;102215.63;;;17.75;50.18
58473;BME280;44775;51.564;5.460;2023-05-24T08:23:20;102217.19;;;17.92;49.65
58473;BME280;44775;51.564;5.460;2023-05-24T08:25:45;102206.38;;;17.92;49.33
58473;BME280;44775;51.564;5.460;2023-05-24T08:28:11;102218.00;;;17.78;49.49
58473;BME280;44775;51.564;5.460;2023-05-24T08:30:37;102212.53;;;17.63;50.25
58473;BME280;44775;51.564;5.460;2023-05-24T08:33:02;102217.94;;;17.86;49.57
58473;BME280;44775;51.564;5.460;2023-05-24T08:35:27;102216.00;;;17.94;49.67
58473;BME280;44775;51.564;5.460;2023-05-24T08:37:53;102212.19;;;18.18;49.12
58473;BME280;44775;51.564;5.460;2023-05-24T08:40:18;102204.00;;;18.27;48.50
58473;BME280;44775;51.564;5.460;2023-05-24T08:42:44;102210.78;;;18.08;47.97
58473;BME280;44775;51.564;5.460;2023-05-24T08:45:11;102207.72;;;17.96;48.65
58473;BME280;44775;51.564;5.460;2023-05-24T08:47:37;102207.16;;;18.15;48.43
58473;BME280;44775;51.564;5.460;2023-05-24T08:50:03;102204.34;;;17.94;48.86
58473;BME280;44775;51.564;5.460;2023-05-24T08:52:30;102194.72;;;17.77;50.57
58473;BME280;44775;51.564;5.460;2023-05-24T08:55:00;102193.00;;;17.76;49.87
58473;BME280;44775;51.564;5.460;2023-05-24T08:57:26;102199.22;;;18.14;48.81
58473;BME280;44775;51.564;5.460;2023-05-24T08:59:52;102205.09;;;18.32;47.39
58473;BME280;44775;51.564;5.460;2023-05-24T09:02:20;102198.94;;;18.53;45.78
58473;BME280;44775;51.564;5.460;2023-05-24T09:04:47;102196.03;;;18.84;46.57
58473;BME280;44775;51.564;5.460;2023-05-24T09:07:15;102191.44;;;19.21;44.27
58473;BME280;44775;51.564;5.460;2023-05-24T09:09:42;102187.81;;;19.35;45.26
58473;BME280;44775;51.564;5.460;2023-05-24T09:12:14;102190.84;;;19.26;46.12
58473;BME280;44775;51.564;5.460;2023-05-24T09:14:45;102191.50;;;19.28;45.80
58473;BME280;44775;51.564;5.460;2023-05-24T09:17:11;102186.63;;;18.80;45.95
58473;BME280;44775;51.564;5.460;2023-05-24T09:19:42;102191.28;;;18.57;47.82
58473;BME280;44775;51.564;5.460;2023-05-24T09:22:08;102192.03;;;18.51;47.57
58473;BME280;44775;51.564;5.460;2023-05-24T09:24:40;102185.78;;;18.35;47.69
58473;BME280;44775;51.564;5.460;2023-05-24T09:27:05;102195.13;;;18.77;47.70
58473;BME280;44775;51.564;5.460;2023-05-24T09:29:34;102187.03;;;19.20;46.40
58473;BME280;44775;51.564;5.460;2023-05-24T09:32:00;102196.34;;;18.75;45.30
58473;BME280;44775;51.564;5.460;2023-05-24T09:34:26;102193.28;;;18.33;45.48
58473;BME280;44775;51.564;5.460;2023-05-24T09:36:51;102204.06;;;17.89;45.73
58473;BME280;44775;51.564;5.460;2023-05-24T09:39:18;102193.66;;;17.55;48.38
58473;BME280;44775;51.564;5.460;2023-05-24T09:41:51;102191.19;;;17.68;47.41
58473;BME280;44775;51.564;5.460;2023-05-24T09:44:23;102194.28;;;18.47;47.92
58473;BME280;44775;51.564;5.460;2023-05-24T09:46:48;102185.66;;;18.88;46.97
58473;BME280;44775;51.564;5.460;2023-05-24T09:49:14;102184.78;;;19.24;46.32
58473;BME280;44775;51.564;5.460;2023-05-24T09:51:39;102193.66;;;19.82;41.61
58473;BME280;44775;51.564;5.460;2023-05-24T09:54:05;102194.13;;;20.20;41.34
58473;BME280;44775;51.564;5.460;2023-05-24T09:56:32;102192.09;;;20.70;40.04
58473;BME280;44775;51.564;5.460;2023-05-24T09:58:57;102179.81;;;20.81;40.40
58473;BME280;44775;51.564;5.460;2023-05-24T10:01:23;102180.81;;;20.67;39.40
58473;BME280;44775;51.564;5.460;2023-05-24T10:03:54;102182.66;;;20.18;42.54
58473;BME280;44775;51.564;5.460;2023-05-24T10:06:20;102184.84;;;19.52;41.74
58473;BME280;44775;51.564;5.460;2023-05-24T10:08:49;102181.91;;;18.89;45.96
58473;BME280;44775;51.564;5.460;2023-05-24T10:11:18;102185.50;;;18.75;46.47
58473;BME280;44775;51.564;5.460;2023-05-24T10:13:44;102175.69;;;19.31;42.89
58473;BME280;44775;51.564;5.460;2023-05-24T10:16:09;102184.22;;;20.06;42.16
58473;BME280;44775;51.564;5.460;2023-05-24T10:18:35;102181.47;;;20.82;39.72
58473;BME280;44775;51.564;5.460;2023-05-24T10:21:00;102183.50;;;21.35;37.39
58473;BME280;44775;51.564;5.460;2023-05-24T10:23:30;102173.06;;;21.65;40.90
58473;BME280;44775;51.564;5.460;2023-05-24T10:26:08;102184.72;;;22.12;37.70
58473;BME280;44775;51.564;5.460;2023-05-24T10:28:39;102176.81;;;21.84;36.84
58473;BME280;44775;51.564;5.460;2023-05-24T10:31:15;102176.41;;;21.60;39.49
58473;BME280;44775;51.564;5.460;2023-05-24T10:33:43;102170.16;;;20.72;38.83
58473;BME280;44775;51.564;5.460;2023-05-24T10:36:10;102170.88;;;20.11;43.21
58473;BME280;44775;51.564;5.460;2023-05-24T10:38:37;102174.72;;;19.89;43.78
58473;BME280;44775;51.564;5.460;2023-05-24T10:41:06;102183.88;;;19.38;42.54
58473;BME280;44775;51.564;5.460;2023-05-24T10:43:33;102153.66;;;19.20;44.06
58473;BME280;44775;51.564;5.460;2023-05-24T10:46:01;102158.97;;;19.28;44.59
58473;BME280;44775;51.564;5.460;2023-05-24T10:50:52;102172.72;;;19.48;40.70
58473;BME280;44775;51.564;5.460;2023-05-24T10:53:22;102166.97;;;19.36;43.32
58473;BME280;44775;51.564;5.460;2023-05-24T10:55:57;102166.38;;;19.19;44.49
58473;BME280;44775;51.564;5.460;2023-05-24T11:00:57;102160.13;;;19.19;44.93
58473;BME280;44775;51.564;5.460;2023-05-24T11:03:23;102161.72;;;19.13;45.97
58473;BME280;44775;51.564;5.460;2023-05-24T11:05:51;102166.63;;;19.03;43.29
58473;BME280;44775;51.564;5.460;2023-05-24T11:08:22;102160.09;;;18.76;43.31
58473;BME280;44775;51.564;5.460;2023-05-24T11:10:48;102158.09;;;18.33;43.00
58473;BME280;44775;51.564;5.460;2023-05-24T11:13:14;102163.59;;;18.10;43.33
58473;BME280;44775;51.564;5.460;2023-05-24T11:15:51;102159.78;;;18.20;50.08
58473;BME280;44775;51.564;5.460;2023-05-24T11:18:21;102158.09;;;18.33;47.20
58473;BME280;44775;51.564;5.460;2023-05-24T11:20:47;102167.97;;;18.41;45.27
58473;BME280;44775;51.564;5.460;2023-05-24T11:23:14;102163.03;;;18.30;46.02
58473;BME280;44775;51.564;5.460;2023-05-24T11:25:40;102162.66;;;18.33;52.26
58473;BME280;44775;51.564;5.460;2023-05-24T11:28:07;102172.28;;;18.21;47.92
58473;BME280;44775;51.564;5.460;2023-05-24T11:30:40;102159.00;;;18.26;48.83
58473;BME280;44775;51.564;5.460;2023-05-24T11:33:19;102175.06;;;18.57;47.75
58473;BME280;44775;51.564;5.460;2023-05-24T11:35:47;102164.81;;;18.23;45.62
58473;BME280;44775;51.564;5.460;2023-05-24T11:38:15;102165.00;;;18.06;45.59
58473;BME280;44775;51.564;5.460;2023-05-24T11:40:42;102165.38;;;18.03;48.96
58473;BME280;44775;51.564;5.460;2023-05-24T11:43:15;102166.41;;;18.17;49.80
58473;BME280;44775;51.564;5.460;2023-05-24T11:45:43;102158.25;;;18.32;48.56
58473;BME280;44775;51.564;5.460;2023-05-24T11:48:09;102156.47;;;18.54;47.45
58473;BME280;44775;51.564;5.460;2023-05-24T11:50:42;102160.94;;;18.61;45.47
58473;BME280;44775;51.564;5.460;2023-05-24T11:53:11;102162.88;;;18.68;44.33
58473;BME280;44775;51.564;5.460;2023-05-24T11:55:38;102162.72;;;18.54;44.87
58473;BME280;44775;51.564;5.460;2023-05-24T11:58:20;102157.56;;;18.59;47.13
58473;BME280;44775;51.564;5.460;2023-05-24T12:00:47;102159.25;;;18.60;46.57
58473;BME280;44775;51.564;5.460;2023-05-24T12:03:13;102150.16;;;18.47;45.27
58473;BME280;44775;51.564;5.460;2023-05-24T12:05:38;102154.31;;;18.49;45.93
58473;BME280;44775;51.564;5.460;2023-05-24T12:08:05;102152.09;;;18.38;47.11
58473;BME280;44775;51.564;5.460;2023-05-24T12:10:36;102159.00;;;18.40;47.25
58473;BME280;44775;51.564;5.460;2023-05-24T12:13:03;102156.38;;;18.77;47.28
58473;BME280;44775;51.564;5.460;2023-05-24T12:15:29;102146.81;;;18.81;47.06
58473;BME280;44775;51.564;5.460;2023-05-24T12:17:55;102147.66;;;18.81;45.72
58473;BME280;44775;51.564;5.460;2023-05-24T12:20:21;102156.75;;;18.74;45.59
58473;BME280;44775;51.564;5.460;2023-05-24T12:22:48;102159.13;;;18.69;45.06
58473;BME280;44775;51.564;5.460;2023-05-24T12:25:16;102147.31;;;18.70;45.57
58473;BME280;44775;51.564;5.460;2023-05-24T12:27:44;102133.31;;;18.51;44.59
58473;BME280;44775;51.564;5.460;2023-05-24T12:30:13;102148.06;;;18.63;45.79
58473;BME280;44775;51.564;5.460;2023-05-24T12:32:44;102154.22;;;18.57;46.58
58473;BME280;44775;51.564;5.460;2023-05-24T12:35:10;102158.97;;;18.70;50.20
58473;BME280;44775;51.564;5.460;2023-05-24T12:37:36;102151.97;;;18.76;49.50
58473;BME280;44775;51.564;5.460;2023-05-24T12:40:02;102135.09;;;18.95;51.12
58473;BME280;44775;51.564;5.460;2023-05-24T12:42:29;102148.97;;;19.28;45.99
58473;BME280;44775;51.564;5.460;2023-05-24T12:44:54;102141.94;;;19.34;43.28
58473;BME280;44775;51.564;5.460;2023-05-24T12:47:20;102141.50;;;19.30;43.17
58473;BME280;44775;51.564;5.460;2023-05-24T12:49:45;102143.03;;;19.18;43.19
58473;BME280;44775;51.564;5.460;2023-05-24T12:52:11;102136.75;;;18.96;44.48
58473;BME280;44775;51.564;5.460;2023-05-24T12:54:36;102151.34;;;18.74;43.76
58473;BME280;44775;51.564;5.460;2023-05-24T12:57:01;102130.16;;;18.48;45.50
58473;BME280;44775;51.564;5.460;2023-05-24T12:59:27;102141.28;;;18.53;50.21